sensor_id;sensor_type;location;lat;lon;timestamp;temperature;humidity
49777;DHT22;35673;51.482;7.436;2023-05-15T00:00:59;15.30;83.10
49777;DHT22;35673;51.482;7.436;2023-05-15T00:03:25;15.30;82.90
49777;DHT22;35673;51.482;7.436;2023-05-15T00:05:51;15.30;83.10
49777;DHT22;35673;51.482;7.436;2023-05-15T00:08:16;15.30;82.80
49777;DHT22;35673;51.482;7.436;2023-05-15T00:10:42;15.40;82.90
49777;DHT22;35673;51.482;7.436;2023-05-15T00:13:08;15.40;82.90
49777;DHT22;35673;51.482;7.436;2023-05-15T00:15:33;15.40;83.10
49777;DHT22;35673;51.482;7.436;2023-05-15T00:17:59;15.40;83.30
49777;DHT22;35673;51.482;7.436;2023-05-15T00:20:24;15.30;83.30
49777;DHT22;35673;51.482;7.436;2023-05-15T00:22:50;15.30;83.60
49777;DHT22;35673;51.482;7.436;2023-05-15T00:25:15;15.30;83.90
49777;DHT22;35673;51.482;7.436;2023-05-15T00:27:44;15.30;84.00
49777;DHT22;35673;51.482;7.436;2023-05-15T00:30:09;15.20;83.90
49777;DHT22;35673;51.482;7.436;2023-05-15T00:32:35;15.20;84.80
49777;DHT22;35673;51.482;7.436;2023-05-15T00:35:01;15.20;82.80
49777;DHT22;35673;51.482;7.436;2023-05-15T00:37:26;15.00;83.40
49777;DHT22;35673;51.482;7.436;2023-05-15T00:39:52;14.80;83.60
49777;DHT22;35673;51.482;7.436;2023-05-15T00:42:17;14.60;83.70
49777;DHT22;35673;51.482;7.436;2023-05-15T00:44:43;14.50;84.70
49777;DHT22;35673;51.482;7.436;2023-05-15T00:47:10;14.40;85.00
49777;DHT22;35673;51.482;7.436;2023-05-15T00:49:36;14.30;85.60
49777;DHT22;35673;51.482;7.436;2023-05-15T00:52:02;14.40;86.90
49777;DHT22;35673;51.482;7.436;2023-05-15T00:54:28;14.50;87.00
49777;DHT22;35673;51.482;7.436;2023-05-15T00:56:56;14.50;87.00
49777;DHT22;35673;51.482;7.436;2023-05-15T00:59:32;14.60;87.10
49777;DHT22;35673;51.482;7.436;2023-05-15T01:01:57;14.50;87.10
49777;DHT22;35673;51.482;7.436;2023-05-15T01:04:23;14.60;87.70
49777;DHT22;35673;51.482;7.436;2023-05-15T01:06:48;14.60;87.50
49777;DHT22;35673;51.482;7.436;2023-05-15T01:09:15;14.60;87.50
49777;DHT22;35673;51.482;7.436;2023-05-15T01:11:41;14.60;86.80
49777;DHT22;35673;51.482;7.436;2023-05-15T01:14:08;14.50;88.00
49777;DHT22;35673;51.482;7.436;2023-05-15T01:16:34;14.50;88.60
49777;DHT22;35673;51.482;7.436;2023-05-15T01:19:00;14.60;88.80
49777;DHT22;35673;51.482;7.436;2023-05-15T01:26:34;14.50;88.80
49777;DHT22;35673;51.482;7.436;2023-05-15T01:31:37;14.50;89.10
49777;DHT22;35673;51.482;7.436;2023-05-15T01:34:07;14.50;89.30
49777;DHT22;35673;51.482;7.436;2023-05-15T01:36:38;14.50;89.50
49777;DHT22;35673;51.482;7.436;2023-05-15T01:39:03;14.60;89.80
49777;DHT22;35673;51.482;7.436;2023-05-15T01:41:40;14.50;89.70
49777;DHT22;35673;51.482;7.436;2023-05-15T01:44:09;14.50;89.90
49777;DHT22;35673;51.482;7.436;2023-05-15T01:46:37;14.50;89.80
49777;DHT22;35673;51.482;7.436;2023-05-15T01:49:03;14.50;90.10
49777;DHT22;35673;51.482;7.436;2023-05-15T01:51:29;14.40;89.80
49777;DHT22;35673;51.482;7.436;2023-05-15T01:53:55;14.30;90.10
49777;DHT22;35673;51.482;7.436;2023-05-15T01:56:23;14.30;90.50
49777;DHT22;35673;51.482;7.436;2023-05-15T01:58:49;14.30;90.40
49777;DHT22;35673;51.482;7.436;2023-05-15T02:01:15;14.20;90.50
49777;DHT22;35673;51.482;7.436;2023-05-15T02:03:42;14.20;90.50
49777;DHT22;35673;51.482;7.436;2023-05-15T02:06:09;14.10;91.10
49777;DHT22;35673;51.482;7.436;2023-05-15T02:08:34;14.10;91.20
49777;DHT22;35673;51.482;7.436;2023-05-15T02:11:00;14.00;91.30
49777;DHT22;35673;51.482;7.436;2023-05-15T02:13:27;14.00;91.50
49777;DHT22;35673;51.482;7.436;2023-05-15T02:15:52;14.00;91.70
49777;DHT22;35673;51.482;7.436;2023-05-15T02:18:18;14.00;91.60
49777;DHT22;35673;51.482;7.436;2023-05-15T02:20:43;13.90;91.80
49777;DHT22;35673;51.482;7.436;2023-05-15T02:23:09;13.90;92.30
49777;DHT22;35673;51.482;7.436;2023-05-15T02:28:27;13.70;92.70
49777;DHT22;35673;51.482;7.436;2023-05-15T02:30:57;13.70;92.70
49777;DHT22;35673;51.482;7.436;2023-05-15T02:33:27;13.70;92.90
49777;DHT22;35673;51.482;7.436;2023-05-15T02:36:27;13.70;93.20
49777;DHT22;35673;51.482;7.436;2023-05-15T02:38:46;13.70;93.20
49777;DHT22;35673;51.482;7.436;2023-05-15T02:41:13;13.60;92.20
49777;DHT22;35673;51.482;7.436;2023-05-15T02:43:39;13.60;93.30
49777;DHT22;35673;51.482;7.436;2023-05-15T02:46:05;13.50;93.30
49777;DHT22;35673;51.482;7.436;2023-05-15T02:48:32;13.60;93.80
49777;DHT22;35673;51.482;7.436;2023-05-15T02:50:58;13.60;94.20
49777;DHT22;35673;51.482;7.436;2023-05-15T02:53:23;13.60;94.10
49777;DHT22;35673;51.482;7.436;2023-05-15T02:55:49;13.60;94.00
49777;DHT22;35673;51.482;7.436;2023-05-15T02:58:15;13.50;94.80
49777;DHT22;35673;51.482;7.436;2023-05-15T03:00:40;13.50;94.40
49777;DHT22;35673;51.482;7.436;2023-05-15T03:03:06;13.50;94.70
49777;DHT22;35673;51.482;7.436;2023-05-15T03:05:31;13.50;95.20
49777;DHT22;35673;51.482;7.436;2023-05-15T03:07:57;13.50;95.50
49777;DHT22;35673;51.482;7.436;2023-05-15T03:10:23;13.40;95.50
49777;DHT22;35673;51.482;7.436;2023-05-15T03:12:48;13.40;95.70
49777;DHT22;35673;51.482;7.436;2023-05-15T03:15:14;13.50;95.70
49777;DHT22;35673;51.482;7.436;2023-05-15T03:17:40;13.40;96.20
49777;DHT22;35673;51.482;7.436;2023-05-15T03:20:06;13.40;96.10
49777;DHT22;35673;51.482;7.436;2023-05-15T03:22:31;13.40;95.50
49777;DHT22;35673;51.482;7.436;2023-05-15T03:24:57;13.20;94.70
49777;DHT22;35673;51.482;7.436;2023-05-15T03:27:22;13.10;95.80
49777;DHT22;35673;51.482;7.436;2023-05-15T03:29:48;13.10;97.50
49777;DHT22;35673;51.482;7.436;2023-05-15T03:32:15;13.20;97.50
49777;DHT22;35673;51.482;7.436;2023-05-15T03:34:41;13.10;95.30
49777;DHT22;35673;51.482;7.436;2023-05-15T03:37:06;12.90;97.40
49777;DHT22;35673;51.482;7.436;2023-05-15T03:39:32;12.90;98.50
49777;DHT22;35673;51.482;7.436;2023-05-15T03:41:58;13.00;99.00
49777;DHT22;35673;51.482;7.436;2023-05-15T03:44:23;13.00;97.80
49777;DHT22;35673;51.482;7.436;2023-05-15T03:46:49;13.10;99.30
49777;DHT22;35673;51.482;7.436;2023-05-15T03:49:14;13.20;99.40
49777;DHT22;35673;51.482;7.436;2023-05-15T03:51:40;13.30;99.90
49777;DHT22;35673;51.482;7.436;2023-05-15T03:54:05;13.30;99.90
49777;DHT22;35673;51.482;7.436;2023-05-15T03:56:31;13.30;99.90
49777;DHT22;35673;51.482;7.436;2023-05-15T03:58:57;13.40;99.90
49777;DHT22;35673;51.482;7.436;2023-05-15T04:01:23;13.30;99.80
49777;DHT22;35673;51.482;7.436;2023-05-15T04:03:48;13.20;99.90
49777;DHT22;35673;51.482;7.436;2023-05-15T04:06:14;13.30;99.90
49777;DHT22;35673;51.482;7.436;2023-05-15T04:08:39;13.30;99.90
49777;DHT22;35673;51.482;7.436;2023-05-15T04:11:05;13.40;99.90
49777;DHT22;35673;51.482;7.436;2023-05-15T04:13:31;13.30;99.90
49777;DHT22;35673;51.482;7.436;2023-05-15T04:15:57;13.40;99.90
49777;DHT22;35673;51.482;7.436;2023-05-15T04:18:24;13.40;99.90
49777;DHT22;35673;51.482;7.436;2023-05-15T04:20:49;13.60;99.90
49777;DHT22;35673;51.482;7.436;2023-05-15T04:23:16;13.60;99.90
49777;DHT22;35673;51.482;7.436;2023-05-15T04:25:42;13.60;99.90
49777;DHT22;35673;51.482;7.436;2023-05-15T04:28:14;13.70;99.90
49777;DHT22;35673;51.482;7.436;2023-05-15T04:30:40;13.80;99.90
49777;DHT22;35673;51.482;7.436;2023-05-15T04:33:06;13.80;99.90
49777;DHT22;35673;51.482;7.436;2023-05-15T04:35:31;13.70;99.90
49777;DHT22;35673;51.482;7.436;2023-05-15T04:37:57;13.80;99.90
49777;DHT22;35673;51.482;7.436;2023-05-15T04:40:22;13.70;99.90
49777;DHT22;35673;51.482;7.436;2023-05-15T04:42:48;13.70;99.90
49777;DHT22;35673;51.482;7.436;2023-05-15T04:45:13;13.80;99.90
49777;DHT22;35673;51.482;7.436;2023-05-15T04:47:39;13.90;99.90
49777;DHT22;35673;51.482;7.436;2023-05-15T04:50:05;14.00;99.90
49777;DHT22;35673;51.482;7.436;2023-05-15T04:52:31;14.00;99.90
49777;DHT22;35673;51.482;7.436;2023-05-15T04:54:59;14.00;99.90
49777;DHT22;35673;51.482;7.436;2023-05-15T04:57:25;14.00;99.90
49777;DHT22;35673;51.482;7.436;2023-05-15T04:59:50;13.90;99.90
49777;DHT22;35673;51.482;7.436;2023-05-15T05:02:21;14.00;99.90
49777;DHT22;35673;51.482;7.436;2023-05-15T05:04:47;14.10;99.90
49777;DHT22;35673;51.482;7.436;2023-05-15T05:07:13;14.10;99.90
49777;DHT22;35673;51.482;7.436;2023-05-15T05:09:39;14.20;99.90
49777;DHT22;35673;51.482;7.436;2023-05-15T05:12:05;14.20;99.90
49777;DHT22;35673;51.482;7.436;2023-05-15T05:14:31;14.20;99.90
49777;DHT22;35673;51.482;7.436;2023-05-15T05:16:57;14.20;99.90
49777;DHT22;35673;51.482;7.436;2023-05-15T05:19:22;14.30;99.90
49777;DHT22;35673;51.482;7.436;2023-05-15T05:21:48;14.20;99.90
49777;DHT22;35673;51.482;7.436;2023-05-15T05:24:13;14.20;99.90
49777;DHT22;35673;51.482;7.436;2023-05-15T05:26:39;14.20;99.90
49777;DHT22;35673;51.482;7.436;2023-05-15T05:29:07;14.30;99.90
49777;DHT22;35673;51.482;7.436;2023-05-15T05:31:32;14.40;99.90
49777;DHT22;35673;51.482;7.436;2023-05-15T05:34:01;14.40;99.90
49777;DHT22;35673;51.482;7.436;2023-05-15T05:36:26;14.40;99.90
49777;DHT22;35673;51.482;7.436;2023-05-15T05:38:52;14.40;99.90
49777;DHT22;35673;51.482;7.436;2023-05-15T05:41:17;14.30;99.90
49777;DHT22;35673;51.482;7.436;2023-05-15T05:43:43;14.20;99.90
49777;DHT22;35673;51.482;7.436;2023-05-15T05:46:09;14.10;99.30
49777;DHT22;35673;51.482;7.436;2023-05-15T05:48:34;14.10;99.90
49777;DHT22;35673;51.482;7.436;2023-05-15T05:51:00;14.10;99.90
49777;DHT22;35673;51.482;7.436;2023-05-15T05:53:26;14.20;99.90
49777;DHT22;35673;51.482;7.436;2023-05-15T05:55:51;14.20;99.90
49777;DHT22;35673;51.482;7.436;2023-05-15T05:58:17;14.20;99.90
49777;DHT22;35673;51.482;7.436;2023-05-15T06:00:43;14.30;99.90
49777;DHT22;35673;51.482;7.436;2023-05-15T06:03:08;14.30;99.90
49777;DHT22;35673;51.482;7.436;2023-05-15T06:05:34;14.30;99.90
49777;DHT22;35673;51.482;7.436;2023-05-15T06:07:59;14.30;99.90
49777;DHT22;35673;51.482;7.436;2023-05-15T06:10:28;14.30;99.90
49777;DHT22;35673;51.482;7.436;2023-05-15T06:12:53;14.30;99.60
49777;DHT22;35673;51.482;7.436;2023-05-15T06:15:19;14.20;99.90
49777;DHT22;35673;51.482;7.436;2023-05-15T06:17:45;14.20;99.90
49777;DHT22;35673;51.482;7.436;2023-05-15T06:20:10;14.30;99.90
49777;DHT22;35673;51.482;7.436;2023-05-15T06:22:36;14.20;99.90
49777;DHT22;35673;51.482;7.436;2023-05-15T06:25:02;14.20;99.90
49777;DHT22;35673;51.482;7.436;2023-05-15T06:27:29;14.10;99.20
49777;DHT22;35673;51.482;7.436;2023-05-15T06:29:54;14.10;98.60
49777;DHT22;35673;51.482;7.436;2023-05-15T06:32:20;14.10;99.90
49777;DHT22;35673;51.482;7.436;2023-05-15T06:34:45;14.20;99.90
49777;DHT22;35673;51.482;7.436;2023-05-15T06:37:11;14.30;99.90
49777;DHT22;35673;51.482;7.436;2023-05-15T06:39:37;14.30;99.90
49777;DHT22;35673;51.482;7.436;2023-05-15T06:42:02;14.40;99.90
49777;DHT22;35673;51.482;7.436;2023-05-15T06:44:29;14.50;97.30
49777;DHT22;35673;51.482;7.436;2023-05-15T06:46:55;14.30;99.90
49777;DHT22;35673;51.482;7.436;2023-05-15T06:49:20;14.40;99.90
49777;DHT22;35673;51.482;7.436;2023-05-15T06:51:46;14.50;99.10
49777;DHT22;35673;51.482;7.436;2023-05-15T06:54:11;14.60;99.90
49777;DHT22;35673;51.482;7.436;2023-05-15T06:56:37;14.70;99.90
49777;DHT22;35673;51.482;7.436;2023-05-15T06:59:02;14.80;99.90
49777;DHT22;35673;51.482;7.436;2023-05-15T07:01:29;14.90;99.90
49777;DHT22;35673;51.482;7.436;2023-05-15T07:03:55;14.90;99.90
49777;DHT22;35673;51.482;7.436;2023-05-15T07:06:20;14.90;96.90
49777;DHT22;35673;51.482;7.436;2023-05-15T07:08:46;14.80;99.90
49777;DHT22;35673;51.482;7.436;2023-05-15T07:11:11;15.00;99.90
49777;DHT22;35673;51.482;7.436;2023-05-15T07:13:37;14.90;97.30
49777;DHT22;35673;51.482;7.436;2023-05-15T07:16:02;14.80;99.90
49777;DHT22;35673;51.482;7.436;2023-05-15T07:18:28;14.90;95.10
49777;DHT22;35673;51.482;7.436;2023-05-15T07:20:54;14.80;96.50
49777;DHT22;35673;51.482;7.436;2023-05-15T07:23:19;14.90;99.00
49777;DHT22;35673;51.482;7.436;2023-05-15T07:25:45;15.00;96.50
49777;DHT22;35673;51.482;7.436;2023-05-15T07:28:10;15.00;96.30
49777;DHT22;35673;51.482;7.436;2023-05-15T07:30:36;15.10;98.30
49777;DHT22;35673;51.482;7.436;2023-05-15T07:33:02;15.20;98.70
49777;DHT22;35673;51.482;7.436;2023-05-15T07:35:27;15.30;97.30
49777;DHT22;35673;51.482;7.436;2023-05-15T07:37:53;15.30;97.00
49777;DHT22;35673;51.482;7.436;2023-05-15T07:40:18;15.30;98.10
49777;DHT22;35673;51.482;7.436;2023-05-15T07:42:44;15.40;98.90
49777;DHT22;35673;51.482;7.436;2023-05-15T07:45:10;15.40;97.10
49777;DHT22;35673;51.482;7.436;2023-05-15T07:47:35;15.50;98.40
49777;DHT22;35673;51.482;7.436;2023-05-15T07:50:01;15.60;97.20
49777;DHT22;35673;51.482;7.436;2023-05-15T07:52:26;15.60;98.00
49777;DHT22;35673;51.482;7.436;2023-05-15T07:54:52;15.60;97.90
49777;DHT22;35673;51.482;7.436;2023-05-15T07:57:17;15.50;96.00
49777;DHT22;35673;51.482;7.436;2023-05-15T07:59:43;15.50;98.00
49777;DHT22;35673;51.482;7.436;2023-05-15T08:02:08;15.60;97.00
49777;DHT22;35673;51.482;7.436;2023-05-15T08:04:34;15.60;95.30
49777;DHT22;35673;51.482;7.436;2023-05-15T08:07:00;15.60;96.50
49777;DHT22;35673;51.482;7.436;2023-05-15T08:09:25;15.80;94.20
49777;DHT22;35673;51.482;7.436;2023-05-15T08:11:54;15.80;93.30
49777;DHT22;35673;51.482;7.436;2023-05-15T08:14:19;15.80;94.80
49777;DHT22;35673;51.482;7.436;2023-05-15T08:16:45;16.00;94.60
49777;DHT22;35673;51.482;7.436;2023-05-15T08:19:10;16.10;93.50
49777;DHT22;35673;51.482;7.436;2023-05-15T08:21:36;16.10;93.10
49777;DHT22;35673;51.482;7.436;2023-05-15T08:24:01;16.10;93.90
49777;DHT22;35673;51.482;7.436;2023-05-15T08:26:27;16.10;92.90
49777;DHT22;35673;51.482;7.436;2023-05-15T08:28:52;16.00;92.50
49777;DHT22;35673;51.482;7.436;2023-05-15T08:31:18;15.90;92.30
49777;DHT22;35673;51.482;7.436;2023-05-15T08:33:44;16.00;92.50
49777;DHT22;35673;51.482;7.436;2023-05-15T08:36:09;16.20;93.20
49777;DHT22;35673;51.482;7.436;2023-05-15T08:38:35;16.50;92.80
49777;DHT22;35673;51.482;7.436;2023-05-15T08:41:01;16.80;92.10
49777;DHT22;35673;51.482;7.436;2023-05-15T08:43:30;16.80;91.10
49777;DHT22;35673;51.482;7.436;2023-05-15T08:45:59;16.50;89.80
49777;DHT22;35673;51.482;7.436;2023-05-15T08:48:25;16.30;90.70
49777;DHT22;35673;51.482;7.436;2023-05-15T08:50:53;16.10;91.20
49777;DHT22;35673;51.482;7.436;2023-05-15T08:53:22;16.00;91.00
49777;DHT22;35673;51.482;7.436;2023-05-15T08:55:47;16.00;91.90
49777;DHT22;35673;51.482;7.436;2023-05-15T08:58:13;16.10;91.50
49777;DHT22;35673;51.482;7.436;2023-05-15T09:00:38;16.20;91.80
49777;DHT22;35673;51.482;7.436;2023-05-15T09:03:04;16.50;91.00
49777;DHT22;35673;51.482;7.436;2023-05-15T09:05:30;16.60;90.60
49777;DHT22;35673;51.482;7.436;2023-05-15T09:07:56;16.80;90.30
49777;DHT22;35673;51.482;7.436;2023-05-15T09:10:23;17.10;89.00
49777;DHT22;35673;51.482;7.436;2023-05-15T09:12:49;17.20;87.50
49777;DHT22;35673;51.482;7.436;2023-05-15T09:15:15;17.30;86.90
49777;DHT22;35673;51.482;7.436;2023-05-15T09:17:42;17.50;86.20
49777;DHT22;35673;51.482;7.436;2023-05-15T09:22:53;17.60;85.80
49777;DHT22;35673;51.482;7.436;2023-05-15T09:25:34;17.80;85.80
49777;DHT22;35673;51.482;7.436;2023-05-15T09:28:02;17.70;83.80
49777;DHT22;35673;51.482;7.436;2023-05-15T09:30:28;17.60;84.30
49777;DHT22;35673;51.482;7.436;2023-05-15T09:32:57;17.70;83.80
49777;DHT22;35673;51.482;7.436;2023-05-15T09:35:30;17.80;83.70
49777;DHT22;35673;51.482;7.436;2023-05-15T09:37:57;17.90;83.70
49777;DHT22;35673;51.482;7.436;2023-05-15T09:40:25;18.00;82.80
49777;DHT22;35673;51.482;7.436;2023-05-15T09:42:52;18.00;81.70
49777;DHT22;35673;51.482;7.436;2023-05-15T09:45:18;18.00;82.20
49777;DHT22;35673;51.482;7.436;2023-05-15T09:47:44;18.20;81.70
49777;DHT22;35673;51.482;7.436;2023-05-15T09:50:09;18.30;80.80
49777;DHT22;35673;51.482;7.436;2023-05-15T09:52:35;18.30;79.80
49777;DHT22;35673;51.482;7.436;2023-05-15T09:55:01;18.40;79.80
49777;DHT22;35673;51.482;7.436;2023-05-15T09:57:27;18.40;79.40
49777;DHT22;35673;51.482;7.436;2023-05-15T09:59:52;18.40;78.80
49777;DHT22;35673;51.482;7.436;2023-05-15T10:02:25;18.50;78.80
49777;DHT22;35673;51.482;7.436;2023-05-15T10:04:56;18.70;78.50
49777;DHT22;35673;51.482;7.436;2023-05-15T10:07:29;18.70;78.10
49777;DHT22;35673;51.482;7.436;2023-05-15T10:09:55;18.80;77.70
49777;DHT22;35673;51.482;7.436;2023-05-15T10:12:20;18.90;77.50
49777;DHT22;35673;51.482;7.436;2023-05-15T10:14:46;18.90;77.20
49777;DHT22;35673;51.482;7.436;2023-05-15T10:17:12;18.90;76.00
49777;DHT22;35673;51.482;7.436;2023-05-15T10:19:46;19.00;76.80
49777;DHT22;35673;51.482;7.436;2023-05-15T10:22:13;19.10;76.60
49777;DHT22;35673;51.482;7.436;2023-05-15T10:24:40;19.10;76.50
49777;DHT22;35673;51.482;7.436;2023-05-15T10:27:07;19.00;75.70
49777;DHT22;35673;51.482;7.436;2023-05-15T10:29:33;19.00;77.00
49777;DHT22;35673;51.482;7.436;2023-05-15T10:31:59;19.00;76.20
49777;DHT22;35673;51.482;7.436;2023-05-15T10:34:25;19.00;76.60
49777;DHT22;35673;51.482;7.436;2023-05-15T10:36:51;18.90;76.60
49777;DHT22;35673;51.482;7.436;2023-05-15T10:39:18;19.00;76.80
49777;DHT22;35673;51.482;7.436;2023-05-15T10:41:44;19.20;76.80
49777;DHT22;35673;51.482;7.436;2023-05-15T10:44:10;19.30;76.20
49777;DHT22;35673;51.482;7.436;2023-05-15T10:46:38;19.40;76.50
49777;DHT22;35673;51.482;7.436;2023-05-15T10:49:04;19.50;76.00
49777;DHT22;35673;51.482;7.436;2023-05-15T10:51:30;19.30;75.40
49777;DHT22;35673;51.482;7.436;2023-05-15T10:53:58;19.10;75.80
49777;DHT22;35673;51.482;7.436;2023-05-15T10:56:30;19.20;76.60
49777;DHT22;35673;51.482;7.436;2023-05-15T10:58:56;19.40;75.30
49777;DHT22;35673;51.482;7.436;2023-05-15T11:01:29;19.60;75.20
49777;DHT22;35673;51.482;7.436;2023-05-15T11:06:32;19.60;73.80
49777;DHT22;35673;51.482;7.436;2023-05-15T11:14:17;19.70;73.10
49777;DHT22;35673;51.482;7.436;2023-05-15T11:22:07;20.00;72.00
49777;DHT22;35673;51.482;7.436;2023-05-15T11:24:53;20.10;71.60
49777;DHT22;35673;51.482;7.436;2023-05-15T11:27:25;20.10;70.50
49777;DHT22;35673;51.482;7.436;2023-05-15T11:30:04;20.20;70.70
49777;DHT22;35673;51.482;7.436;2023-05-15T11:32:31;20.30;70.80
49777;DHT22;35673;51.482;7.436;2023-05-15T11:35:00;20.40;70.70
49777;DHT22;35673;51.482;7.436;2023-05-15T11:37:26;20.40;70.50
49777;DHT22;35673;51.482;7.436;2023-05-15T11:39:55;20.60;70.30
49777;DHT22;35673;51.482;7.436;2023-05-15T11:42:24;20.80;68.30
49777;DHT22;35673;51.482;7.436;2023-05-15T11:44:52;20.80;68.60
49777;DHT22;35673;51.482;7.436;2023-05-15T11:47:18;20.90;68.70
49777;DHT22;35673;51.482;7.436;2023-05-15T11:49:44;21.10;67.30
49777;DHT22;35673;51.482;7.436;2023-05-15T11:52:12;20.90;67.80
49777;DHT22;35673;51.482;7.436;2023-05-15T11:54:38;20.60;67.20
49777;DHT22;35673;51.482;7.436;2023-05-15T11:57:03;20.40;66.40
49777;DHT22;35673;51.482;7.436;2023-05-15T11:59:32;20.60;66.40
49777;DHT22;35673;51.482;7.436;2023-05-15T12:01:58;21.00;66.70
49777;DHT22;35673;51.482;7.436;2023-05-15T12:04:23;21.50;65.50
49777;DHT22;35673;51.482;7.436;2023-05-15T12:06:49;21.50;66.00
49777;DHT22;35673;51.482;7.436;2023-05-15T12:09:18;21.50;66.00
49777;DHT22;35673;51.482;7.436;2023-05-15T12:11:50;21.50;62.60
49777;DHT22;35673;51.482;7.436;2023-05-15T12:14:16;21.50;63.60
49777;DHT22;35673;51.482;7.436;2023-05-15T12:16:41;21.60;63.00
49777;DHT22;35673;51.482;7.436;2023-05-15T12:19:07;21.50;63.50
49777;DHT22;35673;51.482;7.436;2023-05-15T12:21:34;21.60;61.40
49777;DHT22;35673;51.482;7.436;2023-05-15T12:23:59;21.60;63.10
49777;DHT22;35673;51.482;7.436;2023-05-15T12:26:25;21.70;63.00
49777;DHT22;35673;51.482;7.436;2023-05-15T12:28:52;21.80;64.10
49777;DHT22;35673;51.482;7.436;2023-05-15T12:31:18;22.10;62.10
49777;DHT22;35673;51.482;7.436;2023-05-15T12:33:44;22.10;63.30
49777;DHT22;35673;51.482;7.436;2023-05-15T12:36:10;22.20;62.70
49777;DHT22;35673;51.482;7.436;2023-05-15T12:38:36;22.30;62.10
49777;DHT22;35673;51.482;7.436;2023-05-15T12:41:01;22.60;64.20
49777;DHT22;35673;51.482;7.436;2023-05-15T12:43:27;22.60;59.90
49777;DHT22;35673;51.482;7.436;2023-05-15T12:45:53;22.20;60.40
49777;DHT22;35673;51.482;7.436;2023-05-15T12:48:18;22.00;60.10
49777;DHT22;35673;51.482;7.436;2023-05-15T12:50:44;22.10;61.50
49777;DHT22;35673;51.482;7.436;2023-05-15T12:53:11;22.60;62.60
49777;DHT22;35673;51.482;7.436;2023-05-15T12:55:37;24.20;59.50
49777;DHT22;35673;51.482;7.436;2023-05-15T12:58:04;25.80;55.60
49777;DHT22;35673;51.482;7.436;2023-05-15T13:00:33;27.40;54.90
49777;DHT22;35673;51.482;7.436;2023-05-15T13:02:59;27.20;51.80
49777;DHT22;35673;51.482;7.436;2023-05-15T13:05:25;27.00;52.50
49777;DHT22;35673;51.482;7.436;2023-05-15T13:07:51;28.00;50.40
49777;DHT22;35673;51.482;7.436;2023-05-15T13:10:20;28.90;52.80
49777;DHT22;35673;51.482;7.436;2023-05-15T13:12:47;29.70;48.50
49777;DHT22;35673;51.482;7.436;2023-05-15T13:17:47;30.80;49.40
49777;DHT22;35673;51.482;7.436;2023-05-15T13:20:12;29.70;45.60
49777;DHT22;35673;51.482;7.436;2023-05-15T13:22:38;27.60;52.80
49777;DHT22;35673;51.482;7.436;2023-05-15T13:25:04;27.00;51.20
49777;DHT22;35673;51.482;7.436;2023-05-15T13:27:29;26.60;49.90
49777;DHT22;35673;51.482;7.436;2023-05-15T13:29:55;26.50;50.80
49777;DHT22;35673;51.482;7.436;2023-05-15T13:32:20;27.50;52.60
49777;DHT22;35673;51.482;7.436;2023-05-15T13:34:46;28.90;50.10
49777;DHT22;35673;51.482;7.436;2023-05-15T13:37:12;29.00;48.50
49777;DHT22;35673;51.482;7.436;2023-05-15T13:39:37;30.10;45.50
49777;DHT22;35673;51.482;7.436;2023-05-15T13:42:03;30.40;47.70
49777;DHT22;35673;51.482;7.436;2023-05-15T13:44:28;32.10;46.50
49777;DHT22;35673;51.482;7.436;2023-05-15T13:46:54;32.90;42.30
49777;DHT22;35673;51.482;7.436;2023-05-15T13:49:19;32.60;48.80
49777;DHT22;35673;51.482;7.436;2023-05-15T13:51:45;31.90;45.00
49777;DHT22;35673;51.482;7.436;2023-05-15T13:54:11;31.60;46.10
49777;DHT22;35673;51.482;7.436;2023-05-15T13:56:36;32.00;44.50
49777;DHT22;35673;51.482;7.436;2023-05-15T13:59:02;33.20;50.50
49777;DHT22;35673;51.482;7.436;2023-05-15T14:01:28;31.00;45.50
49777;DHT22;35673;51.482;7.436;2023-05-15T14:03:53;31.40;47.90
49777;DHT22;35673;51.482;7.436;2023-05-15T14:06:20;31.80;47.30
49777;DHT22;35673;51.482;7.436;2023-05-15T14:08:45;32.80;48.00
49777;DHT22;35673;51.482;7.436;2023-05-15T14:11:11;33.10;47.20
49777;DHT22;35673;51.482;7.436;2023-05-15T14:13:36;34.10;45.20
49777;DHT22;35673;51.482;7.436;2023-05-15T14:16:02;34.40;49.30
49777;DHT22;35673;51.482;7.436;2023-05-15T14:18:27;32.80;48.60
49777;DHT22;35673;51.482;7.436;2023-05-15T14:20:53;33.00;48.80
49777;DHT22;35673;51.482;7.436;2023-05-15T14:23:18;32.80;49.90
49777;DHT22;35673;51.482;7.436;2023-05-15T14:25:44;32.40;48.80
49777;DHT22;35673;51.482;7.436;2023-05-15T14:28:09;32.60;43.80
49777;DHT22;35673;51.482;7.436;2023-05-15T14:30:35;31.70;46.30
49777;DHT22;35673;51.482;7.436;2023-05-15T14:33:01;29.30;48.90
49777;DHT22;35673;51.482;7.436;2023-05-15T14:35:26;29.30;47.50
49777;DHT22;35673;51.482;7.436;2023-05-15T14:37:52;30.40;48.30
49777;DHT22;35673;51.482;7.436;2023-05-15T14:40:17;31.30;44.70
49777;DHT22;35673;51.482;7.436;2023-05-15T14:42:43;30.60;46.60
49777;DHT22;35673;51.482;7.436;2023-05-15T14:45:08;32.20;45.40
49777;DHT22;35673;51.482;7.436;2023-05-15T14:47:34;32.70;45.70
49777;DHT22;35673;51.482;7.436;2023-05-15T14:50:00;34.00;43.30
49777;DHT22;35673;51.482;7.436;2023-05-15T14:52:25;34.10;45.20
49777;DHT22;35673;51.482;7.436;2023-05-15T14:54:51;33.50;47.60
49777;DHT22;35673;51.482;7.436;2023-05-15T14:57:16;32.20;45.00
49777;DHT22;35673;51.482;7.436;2023-05-15T14:59:45;30.80;46.00
49777;DHT22;35673;51.482;7.436;2023-05-15T15:02:10;31.60;44.60
49777;DHT22;35673;51.482;7.436;2023-05-15T15:04:36;32.20;44.90
49777;DHT22;35673;51.482;7.436;2023-05-15T15:07:02;32.10;47.30
49777;DHT22;35673;51.482;7.436;2023-05-15T15:09:27;30.30;50.30
49777;DHT22;35673;51.482;7.436;2023-05-15T15:11:53;28.10;47.40
49777;DHT22;35673;51.482;7.436;2023-05-15T15:14:19;26.50;51.00
49777;DHT22;35673;51.482;7.436;2023-05-15T15:16:44;25.10;54.30
49777;DHT22;35673;51.482;7.436;2023-05-15T15:19:11;25.20;52.10
49777;DHT22;35673;51.482;7.436;2023-05-15T15:21:36;26.80;51.10
49777;DHT22;35673;51.482;7.436;2023-05-15T15:24:02;27.50;49.40
49777;DHT22;35673;51.482;7.436;2023-05-15T15:26:27;28.20;46.60
49777;DHT22;35673;51.482;7.436;2023-05-15T15:28:53;28.90;47.50
49777;DHT22;35673;51.482;7.436;2023-05-15T15:31:27;29.20;47.30
49777;DHT22;35673;51.482;7.436;2023-05-15T15:33:53;30.00;45.80
49777;DHT22;35673;51.482;7.436;2023-05-15T15:36:19;31.10;45.30
49777;DHT22;35673;51.482;7.436;2023-05-15T15:38:45;31.40;44.50
49777;DHT22;35673;51.482;7.436;2023-05-15T15:41:11;32.00;43.80
49777;DHT22;35673;51.482;7.436;2023-05-15T15:43:37;32.60;43.60
49777;DHT22;35673;51.482;7.436;2023-05-15T15:46:02;33.80;43.30
49777;DHT22;35673;51.482;7.436;2023-05-15T15:48:28;33.00;41.90
49777;DHT22;35673;51.482;7.436;2023-05-15T15:50:53;31.10;43.00
49777;DHT22;35673;51.482;7.436;2023-05-15T15:53:20;29.20;46.20